createdAt,value
2023-05-05T00:01:19.047Z,7.72
2023-05-05T00:03:50.201Z,8.77
2023-05-05T00:06:21.257Z,8.07
2023-05-05T00:08:51.947Z,7.75
2023-05-05T00:11:22.322Z,5.38
2023-05-05T00:13:53.563Z,8.73
2023-05-05T00:16:24.817Z,10.15
2023-05-05T00:18:55.645Z,7.90
2023-05-05T00:21:26.307Z,7.03
2023-05-05T00:23:56.715Z,6.32
2023-05-05T00:26:27.700Z,7.20
2023-05-05T00:28:59.486Z,5.50
2023-05-05T00:31:31.369Z,8.73
2023-05-05T00:34:03.070Z,7.38
2023-05-05T00:36:34.204Z,8.65
2023-05-05T00:39:05.304Z,7.90
2023-05-05T00:41:37.023Z,5.70
2023-05-05T00:44:08.926Z,5.65
2023-05-05T00:46:39.497Z,6.90
2023-05-05T00:49:11.519Z,5.07
2023-05-05T00:51:43.951Z,5.93
2023-05-05T00:54:15.484Z,5.88
2023-05-05T00:56:47.289Z,5.40
2023-05-05T00:59:19.105Z,8.30
2023-05-05T01:01:50.604Z,7.70
2023-05-05T01:04:21.572Z,5.72
2023-05-05T01:07:17.417Z,6.22
2023-05-05T01:10:11.426Z,6.70
2023-05-05T01:12:57.240Z,6.65
2023-05-05T01:15:35.198Z,7.57
2023-05-05T01:18:18.113Z,10.30
2023-05-05T01:21:08.711Z,8.20
2023-05-05T01:24:06.886Z,7.10
2023-05-05T01:27:16.641Z,5.90
2023-05-05T01:30:22.336Z,6.78
2023-05-05T01:32:58.195Z,5.05
2023-05-05T01:35:54.270Z,9.70
2023-05-05T01:38:35.746Z,9.13
2023-05-05T01:41:22.542Z,4.95
2023-05-05T01:43:55.666Z,5.97
2023-05-05T01:46:27.215Z,6.45
2023-05-05T01:49:00.501Z,9.43
2023-05-05T01:51:41.702Z,6.53
2023-05-05T01:54:16.186Z,5.28
2023-05-05T01:56:48.674Z,8.45
2023-05-05T01:59:22.578Z,7.80
2023-05-05T02:01:55.129Z,5.53
2023-05-05T02:04:26.593Z,18.48
2023-05-05T02:07:00.341Z,76.10
2023-05-05T02:09:31.549Z,99.57
2023-05-05T02:12:03.875Z,79.93
2023-05-05T02:14:37.241Z,57.92
2023-05-05T02:17:08.014Z,73.18
2023-05-05T02:19:44.452Z,75.72
2023-05-05T02:22:17.916Z,50.05
2023-05-05T02:24:48.508Z,68.75
2023-05-05T02:27:22.128Z,36.67
2023-05-05T02:30:01.090Z,53.65
2023-05-05T02:32:40.899Z,58.38
2023-05-05T02:35:23.344Z,66.68
2023-05-05T02:38:01.486Z,40.25
2023-05-05T02:40:39.036Z,36.70
2023-05-05T02:43:13.109Z,85.38
2023-05-05T02:45:47.606Z,51.30
2023-05-05T02:48:26.083Z,67.80
2023-05-05T02:51:04.759Z,48.78
2023-05-05T02:53:39.468Z,43.20
2023-05-05T02:56:28.159Z,46.28
2023-05-05T02:59:17.654Z,63.45
2023-05-05T03:02:26.323Z,82.93
2023-05-05T03:05:25.439Z,79.68
2023-05-05T03:08:05.915Z,57.45
2023-05-05T03:11:08.258Z,88.20
2023-05-05T03:13:46.852Z,89.05
2023-05-05T03:16:21.798Z,70.70
2023-05-05T03:18:55.407Z,74.40
2023-05-05T03:21:27.362Z,80.13
2023-05-05T03:23:59.871Z,81.70
2023-05-05T03:26:32.378Z,86.25
2023-05-05T03:29:04.862Z,103.35
2023-05-05T03:34:31.993Z,75.53
2023-05-05T03:37:07.426Z,109.75
2023-05-05T03:39:41.621Z,101.43
2023-05-05T03:42:16.591Z,138.65
2023-05-05T03:44:50.412Z,110.63
2023-05-05T03:47:22.463Z,78.63
2023-05-05T03:49:53.764Z,84.68
2023-05-05T03:52:25.582Z,131.30
2023-05-05T03:54:57.109Z,107.38
2023-05-05T03:57:31.122Z,115.65
2023-05-05T04:00:02.843Z,121.25
2023-05-05T04:02:54.338Z,82.80
2023-05-05T04:05:27.926Z,77.80
2023-05-05T04:08:00.656Z,69.28
2023-05-05T04:10:35.442Z,58.17
2023-05-05T04:13:09.084Z,44.15
2023-05-05T04:15:40.129Z,35.58
2023-05-05T04:18:11.720Z,31.13
2023-05-05T04:20:44.000Z,26.05
2023-05-05T04:23:16.313Z,14.32
2023-05-05T04:25:48.452Z,18.17
2023-05-05T04:28:21.601Z,18.38
2023-05-05T04:30:53.474Z,18.25
2023-05-05T04:33:24.827Z,19.80
2023-05-05T04:35:54.938Z,15.48
2023-05-05T04:38:26.514Z,11.48
2023-05-05T04:40:56.819Z,17.67
2023-05-05T04:43:27.160Z,16.42
2023-05-05T04:45:58.710Z,11.55
2023-05-05T04:48:33.909Z,12.43
2023-05-05T04:51:09.394Z,15.25
2023-05-05T04:53:41.501Z,16.65
2023-05-05T04:56:12.785Z,12.73
2023-05-05T04:58:43.610Z,12.55
2023-05-05T05:01:13.966Z,11.32
2023-05-05T05:03:45.547Z,16.85
2023-05-05T05:06:16.033Z,13.85
2023-05-05T05:08:46.882Z,13.30
2023-05-05T05:11:18.560Z,11.82
2023-05-05T05:13:49.525Z,14.75
2023-05-05T05:16:21.393Z,11.35
2023-05-05T05:18:53.108Z,14.48
2023-05-05T05:21:24.980Z,13.10
2023-05-05T05:23:59.000Z,13.07
2023-05-05T05:26:37.712Z,16.02
2023-05-05T05:29:08.795Z,7.47
2023-05-05T05:34:25.424Z,8.70
2023-05-05T05:36:56.949Z,13.10
2023-05-05T05:39:27.186Z,11.25
2023-05-05T05:41:57.423Z,14.27
2023-05-05T05:44:29.452Z,10.70
2023-05-05T05:46:59.988Z,9.98
2023-05-05T05:49:32.164Z,11.15
2023-05-05T05:52:07.076Z,8.35
2023-05-05T05:54:38.331Z,9.18
2023-05-05T05:57:09.368Z,9.63
2023-05-05T05:59:40.159Z,8.85
2023-05-05T06:02:12.118Z,10.30
2023-05-05T06:04:43.861Z,7.93
2023-05-05T06:07:15.544Z,7.63
2023-05-05T06:09:46.881Z,8.80
2023-05-05T06:12:17.922Z,7.30
2023-05-05T06:14:48.107Z,8.10
2023-05-05T06:17:19.169Z,6.50
2023-05-05T06:19:54.776Z,5.95
2023-05-05T06:22:29.496Z,58.70
2023-05-05T06:25:00.234Z,40.58
2023-05-05T06:27:31.369Z,54.20
2023-05-05T06:30:03.265Z,68.13
2023-05-05T06:32:35.302Z,97.38
2023-05-05T06:35:09.208Z,41.05
2023-05-05T06:37:41.021Z,51.78
2023-05-05T06:40:12.765Z,40.90
2023-05-05T06:42:43.954Z,47.47
2023-05-05T06:45:20.604Z,43.72
2023-05-05T06:47:52.206Z,33.97
2023-05-05T06:50:24.532Z,48.22
2023-05-05T06:52:54.819Z,41.05
2023-05-05T06:55:26.064Z,57.78
2023-05-05T06:57:56.464Z,46.25
2023-05-05T07:00:27.775Z,52.22
2023-05-05T07:02:59.587Z,65.13
2023-05-05T07:05:30.529Z,46.42
2023-05-05T07:08:01.855Z,54.40
2023-05-05T07:10:33.321Z,40.42
2023-05-05T07:13:04.751Z,34.00
2023-05-05T07:15:35.676Z,18.23
2023-05-05T07:18:06.946Z,11.52
2023-05-05T07:20:38.424Z,16.27
2023-05-05T07:23:09.622Z,14.18
2023-05-05T07:25:41.752Z,12.95
2023-05-05T07:28:13.817Z,9.50
2023-05-05T07:30:44.319Z,25.65
2023-05-05T07:33:15.107Z,48.53
2023-05-05T07:35:45.891Z,72.47
2023-05-05T07:38:20.300Z,79.75
2023-05-05T07:40:50.891Z,81.00
2023-05-05T07:43:21.040Z,93.97
2023-05-05T07:45:51.923Z,80.13
2023-05-05T07:48:22.801Z,76.82
2023-05-05T07:50:54.783Z,47.95
2023-05-05T07:53:25.195Z,35.13
2023-05-05T07:55:55.996Z,31.70
2023-05-05T07:58:27.669Z,17.75
2023-05-05T08:00:58.869Z,19.65
2023-05-05T08:03:29.447Z,99.82
2023-05-05T08:06:11.185Z,103.88
2023-05-05T08:08:41.435Z,101.68
2023-05-05T08:11:12.658Z,84.68
2023-05-05T08:13:44.657Z,81.53
2023-05-05T08:16:15.439Z,70.38
2023-05-05T08:18:47.349Z,60.28
2023-05-05T08:21:18.381Z,41.72
2023-05-05T08:23:49.922Z,42.63
2023-05-05T08:26:21.256Z,24.25
2023-05-05T08:28:52.403Z,21.73
2023-05-05T08:31:24.958Z,10.48
2023-05-05T08:34:00.128Z,14.63
2023-05-05T08:36:31.567Z,7.70
2023-05-05T08:39:03.919Z,8.90
2023-05-05T08:41:36.047Z,8.65
2023-05-05T08:44:06.695Z,8.93
2023-05-05T08:46:41.023Z,7.03
2023-05-05T08:52:05.790Z,4.50
2023-05-05T08:54:41.302Z,4.30
2023-05-05T08:59:44.095Z,3.13
2023-05-05T09:02:16.729Z,2.50
2023-05-05T09:04:47.925Z,4.10
2023-05-05T09:07:18.971Z,2.85
2023-05-05T09:09:50.048Z,2.97
2023-05-05T09:12:22.203Z,3.40
2023-05-05T09:14:53.706Z,2.72
2023-05-05T09:17:29.158Z,11.50
2023-05-05T09:20:14.513Z,12.77
2023-05-05T09:22:49.857Z,33.03
2023-05-05T09:27:51.782Z,53.90
2023-05-05T09:30:29.441Z,61.00
2023-05-05T09:33:01.104Z,59.78
2023-05-05T09:35:58.307Z,58.58
2023-05-05T09:38:29.426Z,40.22
2023-05-05T09:41:00.859Z,88.25
2023-05-05T09:43:32.235Z,54.63
2023-05-05T09:46:10.619Z,20.20
2023-05-05T09:48:41.199Z,100.05
2023-05-05T09:51:12.000Z,51.20
2023-05-05T09:53:43.709Z,89.45
2023-05-05T09:56:15.140Z,70.32
2023-05-05T09:58:47.167Z,41.10
2023-05-05T10:01:27.609Z,33.55
2023-05-05T10:03:58.702Z,59.42
2023-05-05T10:06:45.671Z,58.92
2023-05-05T10:09:17.869Z,50.42
2023-05-05T10:11:49.072Z,61.83
2023-05-05T10:14:22.694Z,50.95
2023-05-05T10:16:56.377Z,52.58
2023-05-05T10:19:34.884Z,40.10
2023-05-05T10:22:13.478Z,72.97
2023-05-05T10:24:59.870Z,79.40
2023-05-05T10:27:36.068Z,93.38
2023-05-05T10:30:11.684Z,77.40
2023-05-05T10:33:13.195Z,111.55
2023-05-05T10:35:54.566Z,87.97
2023-05-05T10:38:27.965Z,145.38
2023-05-05T10:41:02.363Z,96.88
2023-05-05T10:43:34.937Z,55.55
2023-05-05T10:46:05.825Z,62.10
2023-05-05T10:48:45.149Z,59.33
2023-05-05T10:51:39.536Z,63.17
2023-05-05T10:54:29.745Z,145.40
2023-05-05T10:57:06.230Z,106.35
2023-05-05T10:59:40.346Z,98.20
2023-05-05T11:02:31.121Z,93.93
2023-05-05T11:05:25.816Z,71.85
2023-05-05T11:07:56.480Z,81.57
2023-05-05T11:10:27.580Z,78.20
2023-05-05T11:13:02.122Z,68.40
2023-05-05T11:15:32.537Z,72.32
2023-05-05T11:18:07.954Z,65.03
2023-05-05T11:20:50.524Z,51.45
2023-05-05T11:23:25.382Z,40.63
2023-05-05T11:25:57.305Z,33.65
2023-05-05T11:28:31.416Z,25.92
2023-05-05T11:31:06.183Z,19.65
2023-05-05T11:33:41.810Z,18.95
2023-05-05T11:36:20.282Z,11.23
2023-05-05T11:39:00.525Z,14.23
2023-05-05T11:41:35.255Z,10.23
2023-05-05T11:44:23.668Z,13.57
2023-05-05T11:46:54.727Z,23.30
2023-05-05T11:49:42.099Z,9.93
2023-05-05T11:52:16.834Z,7.03
2023-05-05T11:54:51.879Z,6.72
2023-05-05T11:57:29.490Z,4.45
2023-05-05T12:00:10.506Z,6.00
2023-05-05T12:02:42.158Z,4.80
2023-05-05T12:05:14.081Z,3.55
2023-05-05T12:07:45.717Z,4.13
2023-05-05T12:10:25.029Z,5.00
2023-05-05T12:12:56.593Z,5.43
2023-05-05T12:15:33.164Z,6.00
2023-05-05T12:18:07.678Z,7.10
2023-05-05T12:20:39.491Z,2.83
2023-05-05T12:23:13.692Z,3.55
2023-05-05T12:25:43.894Z,5.32
2023-05-05T12:28:16.765Z,4.63
2023-05-05T12:30:59.156Z,2.17
2023-05-05T12:33:31.241Z,4.47
2023-05-05T12:36:01.767Z,6.93
2023-05-05T12:38:31.990Z,5.22
2023-05-05T12:41:03.346Z,4.57
2023-05-05T12:43:37.418Z,3.00
2023-05-05T12:46:16.747Z,6.45
2023-05-05T12:48:48.729Z,6.03
2023-05-05T12:51:28.232Z,7.15
2023-05-05T12:54:15.253Z,4.05
2023-05-05T12:56:50.790Z,4.50
2023-05-05T12:59:24.916Z,6.43
2023-05-05T13:01:58.470Z,8.00
2023-05-05T13:04:33.965Z,6.38
2023-05-05T13:07:16.670Z,5.82
2023-05-05T13:09:48.305Z,4.88
2023-05-05T13:12:25.099Z,4.22
2023-05-05T13:14:55.562Z,4.35
2023-05-05T13:17:26.542Z,3.53
2023-05-05T13:19:57.665Z,4.75
2023-05-05T13:22:32.099Z,5.03
2023-05-05T13:25:05.682Z,3.83
2023-05-05T13:27:36.055Z,8.63
2023-05-05T13:30:12.344Z,5.05
2023-05-05T13:32:45.125Z,5.13
2023-05-05T13:35:16.679Z,4.63
2023-05-05T13:37:49.208Z,4.50
2023-05-05T13:40:20.416Z,4.70
2023-05-05T13:42:51.842Z,6.35
2023-05-05T13:45:23.259Z,5.70
2023-05-05T13:47:53.541Z,6.30
2023-05-05T13:50:29.174Z,5.50
2023-05-05T13:52:59.302Z,4.63
2023-05-05T13:55:30.994Z,5.72
2023-05-05T13:58:03.115Z,5.53
2023-05-05T14:00:34.983Z,3.72
2023-05-05T14:03:06.926Z,7.35
2023-05-05T14:05:38.875Z,5.32
2023-05-05T14:08:10.372Z,5.07
2023-05-05T14:10:44.779Z,5.35
2023-05-05T14:13:17.905Z,5.13
2023-05-05T14:15:50.221Z,7.18
2023-05-05T14:18:20.593Z,4.22
2023-05-05T14:20:51.491Z,4.57
2023-05-05T14:23:23.226Z,6.18
2023-05-05T14:25:53.484Z,3.65
2023-05-05T14:28:24.356Z,4.30
2023-05-05T14:30:55.321Z,3.58
2023-05-05T14:33:27.043Z,3.72
2023-05-05T14:35:58.503Z,5.15
2023-05-05T14:38:29.574Z,2.65
2023-05-05T14:41:01.323Z,92.60
2023-05-05T14:43:31.512Z,59.33
2023-05-05T14:46:07.845Z,42.33
2023-05-05T14:48:40.321Z,68.18
2023-05-05T14:51:10.530Z,105.13
2023-05-05T14:53:40.761Z,52.38
2023-05-05T14:56:11.334Z,61.95
2023-05-05T14:58:41.734Z,50.65
2023-05-05T15:01:13.321Z,61.97
2023-05-05T15:03:43.931Z,64.43
2023-05-05T15:06:15.046Z,55.13
2023-05-05T15:08:46.240Z,67.80
2023-05-05T15:11:17.737Z,50.40
2023-05-05T15:13:49.569Z,93.50
2023-05-05T15:16:20.367Z,79.40
2023-05-05T15:18:52.086Z,86.88
2023-05-05T15:21:23.563Z,100.15
2023-05-05T15:23:53.970Z,90.43
2023-05-05T15:26:25.269Z,105.30
2023-05-05T15:28:56.462Z,113.07
2023-05-05T15:31:26.846Z,91.38
2023-05-05T15:33:59.011Z,60.90
2023-05-05T15:36:30.061Z,56.10
2023-05-05T15:39:01.488Z,47.55
2023-05-05T15:41:32.628Z,42.83
2023-05-05T15:44:05.448Z,35.72
2023-05-05T15:46:35.919Z,28.08
2023-05-05T15:49:06.973Z,26.35
2023-05-05T15:51:38.301Z,18.73
2023-05-05T15:54:09.178Z,22.58
2023-05-05T15:56:39.622Z,19.95
2023-05-05T15:59:10.871Z,35.53
2023-05-05T16:01:42.061Z,21.38
2023-05-05T16:04:13.211Z,102.10
2023-05-05T16:06:43.383Z,112.07
2023-05-05T16:09:13.634Z,96.95
2023-05-05T16:11:44.865Z,33.40
2023-05-05T16:14:17.076Z,20.45
2023-05-05T16:16:47.297Z,22.58
2023-05-05T16:19:18.007Z,13.10
2023-05-05T16:21:50.690Z,14.55
2023-05-05T16:24:21.130Z,13.20
2023-05-05T16:26:54.007Z,13.73
2023-05-05T16:29:27.407Z,12.88
2023-05-05T16:34:26.366Z,115.93
2023-05-05T16:36:57.486Z,133.25
2023-05-05T16:39:27.672Z,113.25
2023-05-05T16:41:58.077Z,104.93
2023-05-05T16:44:28.886Z,146.18
2023-05-05T16:47:00.857Z,106.60
2023-05-05T16:49:31.307Z,88.05
2023-05-05T16:52:03.989Z,75.82
2023-05-05T16:54:35.452Z,55.92
2023-05-05T16:57:06.338Z,39.38
2023-05-05T16:59:38.693Z,28.00
2023-05-05T17:02:10.709Z,12.70
2023-05-05T17:04:43.938Z,17.85
2023-05-05T17:07:14.195Z,15.38
2023-05-05T17:09:47.462Z,13.80
2023-05-05T17:12:17.719Z,14.35
2023-05-05T17:14:47.836Z,15.77
2023-05-05T17:17:21.758Z,15.55
2023-05-05T17:19:55.573Z,13.52
2023-05-05T17:22:26.607Z,9.88
2023-05-05T17:24:56.792Z,75.47
2023-05-05T17:27:29.619Z,17.85
2023-05-05T17:30:00.772Z,10.52
2023-05-05T17:32:30.886Z,10.18
2023-05-05T17:35:02.067Z,10.13
2023-05-05T17:37:36.287Z,8.77
2023-05-05T17:40:09.564Z,10.13
2023-05-05T17:42:41.062Z,10.55
2023-05-05T17:45:14.089Z,9.57
2023-05-05T17:47:45.249Z,7.45
2023-05-05T17:50:16.896Z,6.70
2023-05-05T17:52:48.758Z,9.32
2023-05-05T17:55:20.230Z,5.57
2023-05-05T17:57:51.422Z,8.52
2023-05-05T18:00:24.628Z,8.40
2023-05-05T18:02:56.171Z,6.65
2023-05-05T18:05:27.155Z,8.23
2023-05-05T18:07:58.218Z,5.10
2023-05-05T18:10:29.848Z,7.93
2023-05-05T18:13:02.775Z,5.38
2023-05-05T18:15:33.240Z,7.97
2023-05-05T18:18:04.607Z,7.78
2023-05-05T18:20:34.912Z,10.07
2023-05-05T18:23:08.841Z,6.75
2023-05-05T18:25:40.040Z,5.20
2023-05-05T18:28:13.092Z,7.85
2023-05-05T18:30:44.829Z,4.65
2023-05-05T18:33:15.879Z,4.78
2023-05-05T18:35:46.799Z,8.07
2023-05-05T18:38:17.109Z,6.93
2023-05-05T18:40:49.826Z,4.50
2023-05-05T18:43:21.190Z,11.48
2023-05-05T18:45:52.742Z,4.75
2023-05-05T18:48:23.701Z,5.78
2023-05-05T18:50:54.330Z,4.85
2023-05-05T18:53:27.289Z,5.38
2023-05-05T18:56:03.688Z,7.05
2023-05-05T18:58:34.386Z,7.97
2023-05-05T19:01:04.693Z,3.88
2023-05-05T19:03:36.052Z,3.55
2023-05-05T19:06:09.471Z,5.68
2023-05-05T19:08:40.920Z,5.55
2023-05-05T19:11:12.699Z,4.32
2023-05-05T19:13:44.297Z,4.15
2023-05-05T19:16:15.915Z,2.95
2023-05-05T19:18:47.165Z,4.10
2023-05-05T19:21:20.189Z,5.38
2023-05-05T19:23:52.862Z,5.43
2023-05-05T19:26:23.344Z,4.10
2023-05-05T19:28:53.446Z,6.13
2023-05-05T19:31:29.707Z,3.58
2023-05-05T19:34:03.883Z,6.22
2023-05-05T19:36:36.229Z,3.83
2023-05-05T19:39:06.973Z,3.00
2023-05-05T19:41:37.065Z,5.70
2023-05-05T19:44:07.634Z,3.67
2023-05-05T19:46:39.475Z,5.68
2023-05-05T19:49:11.552Z,3.10
2023-05-05T19:51:44.110Z,5.10
2023-05-05T19:54:14.594Z,5.25
2023-05-05T19:56:46.399Z,4.25
2023-05-05T19:59:17.983Z,5.05
2023-05-05T20:01:49.410Z,3.88
2023-05-05T20:04:20.794Z,4.32
2023-05-05T20:06:51.308Z,6.63
2023-05-05T20:09:22.716Z,4.40
2023-05-05T20:11:54.285Z,3.03
2023-05-05T20:14:25.481Z,3.38
2023-05-05T20:16:56.095Z,4.13
2023-05-05T20:19:27.077Z,2.90
2023-05-05T20:21:58.446Z,3.00
2023-05-05T20:24:31.146Z,4.05
2023-05-05T20:27:02.332Z,4.22
2023-05-05T20:29:32.713Z,1.77
2023-05-05T20:32:28.522Z,3.08
2023-05-05T20:34:59.639Z,3.85
2023-05-05T20:37:30.070Z,2.53
2023-05-05T20:40:01.662Z,3.10
2023-05-05T20:42:33.229Z,2.83
2023-05-05T20:45:04.689Z,3.45
2023-05-05T20:47:37.871Z,4.13
2023-05-05T20:50:09.721Z,4.18
2023-05-05T20:52:41.423Z,4.07
2023-05-05T20:55:11.891Z,2.60
2023-05-05T20:57:42.908Z,3.13
2023-05-05T21:00:14.927Z,2.70
2023-05-05T21:02:46.386Z,4.00
2023-05-05T21:05:19.330Z,4.55
2023-05-05T21:07:50.357Z,5.00
2023-05-05T21:10:21.501Z,4.70
2023-05-05T21:12:54.001Z,3.38
2023-05-05T21:15:24.290Z,3.53
2023-05-05T21:17:54.524Z,1.90
2023-05-05T21:20:25.759Z,2.13
2023-05-05T21:22:56.753Z,3.10
2023-05-05T21:25:29.336Z,2.58
2023-05-05T21:28:00.151Z,3.78
2023-05-05T21:30:31.584Z,3.75
2023-05-05T21:33:04.443Z,2.88
2023-05-05T21:35:35.127Z,3.67
2023-05-05T21:38:10.728Z,2.72
2023-05-05T21:40:42.378Z,3.38
2023-05-05T21:43:13.521Z,2.47
2023-05-05T21:45:45.152Z,2.88
2023-05-05T21:48:15.112Z,2.85
2023-05-05T21:50:45.480Z,2.58
2023-05-05T21:53:18.410Z,4.80
2023-05-05T21:55:50.327Z,6.55
2023-05-05T21:58:23.932Z,4.28
2023-05-05T22:00:55.357Z,3.67
2023-05-05T22:03:28.623Z,2.88
2023-05-05T22:05:59.654Z,2.70
2023-05-05T22:08:31.119Z,2.90
2023-05-05T22:11:04.061Z,2.30
2023-05-05T22:13:36.244Z,3.13
2023-05-05T22:16:09.551Z,3.78
2023-05-05T22:18:41.035Z,3.38
2023-05-05T22:21:11.969Z,2.28
2023-05-05T22:23:45.878Z,2.45
2023-05-05T22:26:17.051Z,2.10
2023-05-05T22:28:49.010Z,3.38
2023-05-05T22:31:20.834Z,2.45
2023-05-05T22:33:52.496Z,2.05
2023-05-05T22:36:24.731Z,2.60
2023-05-05T22:38:56.495Z,2.40
2023-05-05T22:41:28.931Z,2.53
2023-05-05T22:43:59.794Z,2.33
2023-05-05T22:46:32.393Z,5.22
2023-05-05T22:49:02.911Z,3.70
2023-05-05T22:51:34.125Z,3.55
2023-05-05T22:54:04.542Z,3.95
2023-05-05T22:56:35.414Z,3.67
2023-05-05T22:59:08.304Z,4.40
2023-05-05T23:01:40.833Z,2.45
2023-05-05T23:04:11.798Z,2.50
2023-05-05T23:06:42.817Z,2.33
2023-05-05T23:09:13.921Z,1.92
2023-05-05T23:11:45.624Z,1.67
2023-05-05T23:14:17.501Z,3.28
2023-05-05T23:16:50.715Z,2.78
2023-05-05T23:19:23.384Z,4.13
2023-05-05T23:21:54.081Z,2.80
2023-05-05T23:24:25.719Z,2.50
2023-05-05T23:26:57.590Z,5.18
2023-05-05T23:29:27.912Z,5.50
2023-05-05T23:31:59.538Z,1.80
2023-05-05T23:34:30.680Z,3.05
2023-05-05T23:37:00.672Z,1.85
2023-05-05T23:39:32.003Z,3.15
2023-05-05T23:42:05.820Z,1.63
2023-05-05T23:44:37.410Z,4.07
2023-05-05T23:47:08.572Z,2.53
2023-05-05T23:49:39.312Z,1.48
2023-05-05T23:52:13.399Z,2.53
2023-05-05T23:54:44.920Z,1.85
2023-05-05T23:57:15.873Z,1.73
2023-05-05T23:59:47.539Z,3.17
